This is the latest recevied weather packets stored in our database for station/object HJ3GNC-15. If no packets are shown the sender has not sent any weather packets the latest 10 day(s).
| Time | Temp. | Humidity | Pressure | Rain* | Wind** | Luminosity | Snow |
|---|---|---|---|---|---|---|---|
| 1777139183 | 18.33° C | 75% | 1011 hPa | 0 mm | - | - | - |
| 1777137245 | 18.33° C | 74% | 1013 hPa | 0 mm | - | - | - |
| 1777136297 | 18.89° C | 72% | 1013 hPa | 0 mm | - | - | - |
| 1777135349 | 18.89° C | 72% | 1013 hPa | 0 mm | - | - | - |
| 1777134404 | 17.22° C | 77% | 1014 hPa | 0 mm | - | - | - |
| 1777133462 | 17.22° C | 77% | 1014 hPa | 0 mm | - | - | - |
| 1777131514 | 17.22° C | 76% | 1014 hPa | 0 mm | - | - | - |
| 1777130571 | 16.67° C | 78% | 1015 hPa | 0 mm | - | - | - |
| 1777129622 | 16.67° C | 79% | 1015 hPa | 0 mm | - | - | - |
| 1777128657 | 16.67° C | 77% | 1015 hPa | 0 mm | - | - | - |
| 1777127684 | 16.67° C | 77% | 1015 hPa | 0 mm | - | - | - |
| 1777126689 | 15.56° C | 83% | 1015 hPa | 0 mm | - | - | - |
| 1777125728 | 15° C | 82% | 1015 hPa | 0 mm | - | - | - |
| 1777124767 | 15° C | 81% | 1015 hPa | 0 mm | - | - | - |
| 1777123823 | 15° C | 81% | 1015 hPa | 0 mm | - | - | - |
| 1777122882 | 14.44° C | 86% | 1015 hPa | 0 mm | - | - | - |
| 1777121940 | 14.44° C | 85% | 1015 hPa | 0 mm | - | - | - |
| 1777120997 | 14.44° C | 85% | 1015 hPa | 0 mm | - | - | - |
| 1777120055 | 13.89° C | 93% | 1015 hPa | 0 mm | - | - | - |
| 1777119108 | 13.89° C | 94% | 1015 hPa | 0 mm | - | - | - |
| 1777118165 | 13.89° C | 93% | 1015 hPa | 0 mm | - | - | - |
* Rain latest hour (hover to see other rain measurements)
** Current wind speed in m/s (hover to see current wind gust speed)